createdAt,value
2022-12-29T12:19:13.749Z,98503.59
2022-12-29T12:21:46.017Z,98516.00
2022-12-29T12:24:26.166Z,98510.34
2022-12-29T12:26:58.111Z,98516.63
2022-12-29T12:29:28.760Z,98528.28
2022-12-29T12:31:59.499Z,98549.00
2022-12-29T12:34:32.844Z,98527.63
2022-12-29T12:37:19.137Z,98529.47
2022-12-29T12:39:51.967Z,98538.81
2022-12-29T12:42:28.682Z,98534.69
2022-12-29T12:45:04.606Z,98537.38
2022-12-29T12:47:49.878Z,98533.25
2022-12-29T12:50:34.427Z,98532.88
2022-12-29T12:53:09.890Z,98529.50
2022-12-29T12:55:49.089Z,98523.47
2022-12-29T12:58:20.798Z,98534.84
2022-12-29T13:00:53.990Z,98549.97
2022-12-29T13:03:29.593Z,98562.94
2022-12-29T13:06:12.849Z,98570.72
2022-12-29T13:08:58.965Z,98592.31
2022-12-29T13:11:31.369Z,98609.19
2022-12-29T13:14:21.077Z,98622.75
2022-12-29T13:16:52.398Z,98602.00
2022-12-29T13:19:26.774Z,98581.66
2022-12-29T13:22:06.258Z,98579.72
2022-12-29T13:24:42.995Z,98587.41
2022-12-29T13:27:15.341Z,98594.34
2022-12-29T13:29:48.331Z,98601.00
2022-12-29T13:32:29.220Z,98612.22
2022-12-29T13:35:05.444Z,98619.69
2022-12-29T13:37:37.516Z,98615.38
2022-12-29T13:40:12.484Z,98628.13
2022-12-29T13:42:41.121Z,98630.28
2022-12-29T13:45:13.943Z,98635.97
2022-12-29T13:47:44.514Z,98638.47
2022-12-29T13:50:16.703Z,98640.72
2022-12-29T13:52:51.134Z,98637.28
2022-12-29T13:55:31.602Z,98635.44
2022-12-29T13:58:03.938Z,98635.25
2022-12-29T14:00:35.771Z,98636.91
2022-12-29T14:03:22.809Z,98644.41
2022-12-29T14:06:05.964Z,98651.44
2022-12-29T14:08:36.530Z,98648.69
2022-12-29T14:11:09.105Z,98666.91
2022-12-29T14:13:39.848Z,98662.44
2022-12-29T14:16:09.378Z,98659.22
2022-12-29T14:18:43.662Z,98658.38
2022-12-29T14:21:19.876Z,98660.81
2022-12-29T14:23:50.555Z,98656.72
2022-12-29T14:26:21.048Z,98647.72
2022-12-29T14:28:49.916Z,98660.31
2022-12-29T14:31:42.125Z,98660.31
2022-12-29T14:34:29.309Z,98666.06
2022-12-29T14:36:59.001Z,98659.28
2022-12-29T14:39:32.790Z,98656.31
2022-12-29T14:42:05.684Z,98654.00
2022-12-29T14:44:34.322Z,98649.09
2022-12-29T14:47:04.168Z,98662.38
2022-12-29T14:49:34.030Z,98664.81
2022-12-29T14:52:10.694Z,98667.63
2022-12-29T14:55:01.480Z,98670.56
2022-12-29T14:57:33.100Z,98668.13
2022-12-29T15:00:04.111Z,98682.06
2022-12-29T15:02:36.983Z,98689.09
2022-12-29T15:05:05.605Z,98691.69
2022-12-29T15:07:35.776Z,98682.66
2022-12-29T15:10:07.688Z,98670.72
2022-12-29T15:12:40.055Z,98678.81
2022-12-29T15:15:22.265Z,98681.41
2022-12-29T15:17:50.652Z,98672.00
2022-12-29T15:20:28.759Z,98680.41
2022-12-29T15:22:58.861Z,98687.91
2022-12-29T15:25:27.734Z,98686.97
2022-12-29T15:27:59.566Z,98686.75
2022-12-29T15:30:27.600Z,98676.44
2022-12-29T15:32:55.674Z,98676.69
2022-12-29T15:35:29.771Z,98671.88
2022-12-29T15:37:59.442Z,98669.94
2022-12-29T15:40:29.652Z,98680.66
2022-12-29T15:43:10.803Z,98667.88
2022-12-29T15:45:39.828Z,98675.97
2022-12-29T15:48:16.607Z,98668.66
2022-12-29T15:50:45.633Z,98678.22
2022-12-29T15:53:20.273Z,98675.25
2022-12-29T15:55:50.752Z,98687.22
2022-12-29T15:58:24.210Z,98687.06
2022-12-29T16:00:55.076Z,98699.97
2022-12-29T16:03:25.213Z,98702.53
2022-12-29T16:05:55.163Z,98708.25
2022-12-29T16:08:27.635Z,98709.59
2022-12-29T16:10:57.398Z,98717.94
2022-12-29T16:13:28.670Z,98726.03
2022-12-29T16:16:01.808Z,98733.38
2022-12-29T16:18:31.707Z,98728.03
2022-12-29T16:21:00.133Z,98727.41
2022-12-29T16:23:29.219Z,98732.28
2022-12-29T16:25:59.053Z,98727.41
2022-12-29T16:28:33.272Z,98728.41
2022-12-29T16:31:04.744Z,98718.22
2022-12-29T16:33:40.960Z,98713.59
2022-12-29T16:36:29.536Z,98716.09
2022-12-29T16:39:23.235Z,98719.94
2022-12-29T16:41:52.694Z,98724.81
2022-12-29T16:44:23.167Z,98733.19
2022-12-29T16:47:19.364Z,98736.19
2022-12-29T16:49:51.386Z,98755.59
2022-12-29T16:52:21.584Z,98753.91
2022-12-29T16:54:52.746Z,98754.09
2022-12-29T16:57:24.106Z,98753.09
2022-12-29T16:59:55.127Z,98756.41
2022-12-29T17:02:25.769Z,98771.63
2022-12-29T17:04:53.993Z,98771.16
2022-12-29T17:07:23.193Z,98763.97
2022-12-29T17:09:54.227Z,98756.94
2022-12-29T17:12:26.247Z,98766.28
2022-12-29T17:14:58.129Z,98765.94
2022-12-29T17:17:32.853Z,98764.59
2022-12-29T17:20:04.294Z,98766.28
2022-12-29T17:22:32.410Z,98763.91
2022-12-29T17:25:01.336Z,98768.28
2022-12-29T17:27:32.384Z,98758.25
2022-12-29T17:30:04.687Z,98746.88
2022-12-29T17:32:33.987Z,98744.19
2022-12-29T17:35:02.077Z,98737.50
2022-12-29T17:37:31.910Z,98735.88
2022-12-29T17:40:00.270Z,98729.50
2022-12-29T17:42:28.688Z,98718.63
2022-12-29T17:44:56.911Z,98716.97
2022-12-29T17:47:26.381Z,98715.47
2022-12-29T17:49:55.464Z,98725.81
2022-12-29T17:52:23.719Z,98731.47
2022-12-29T17:54:53.208Z,98733.81
2022-12-29T17:57:21.762Z,98723.59
2022-12-29T17:59:50.000Z,98711.34
2022-12-29T18:02:35.870Z,98716.72
2022-12-29T18:05:04.294Z,98716.34
2022-12-29T18:07:36.133Z,98713.69
2022-12-29T18:10:05.123Z,98710.84
2022-12-29T18:12:41.846Z,98701.16
2022-12-29T18:15:18.048Z,98697.28
2022-12-29T18:17:47.821Z,98690.28
2022-12-29T18:20:16.910Z,98684.75
2022-12-29T18:22:45.009Z,98683.91
2022-12-29T18:25:22.648Z,98667.19
2022-12-29T18:27:51.047Z,98666.19
2022-12-29T18:30:19.485Z,98662.19
2022-12-29T18:32:48.970Z,98657.66
2022-12-29T18:35:19.593Z,98648.66
2022-12-29T18:37:47.683Z,98640.97
2022-12-29T18:40:15.918Z,98635.63
2022-12-29T18:42:44.350Z,98627.41
2022-12-29T18:45:17.503Z,98624.91
2022-12-29T18:47:46.177Z,98620.88
2022-12-29T18:50:16.230Z,98604.47
2022-12-29T18:52:44.263Z,98590.31
2022-12-29T18:55:14.221Z,98584.97
2022-12-29T18:57:42.675Z,98578.91
2022-12-29T19:00:11.665Z,98568.56
2022-12-29T19:02:39.787Z,98569.88
2022-12-29T19:05:15.521Z,98559.97
2022-12-29T19:07:45.082Z,98551.13
2022-12-29T19:10:13.367Z,98546.44
2022-12-29T19:12:41.671Z,98536.72
2022-12-29T19:15:14.954Z,98531.91
2022-12-29T19:17:43.305Z,98526.19
2022-12-29T19:20:22.227Z,98519.31
2022-12-29T19:22:52.098Z,98513.13
2022-12-29T19:25:20.553Z,98507.97
2022-12-29T19:27:48.903Z,98501.59
2022-12-29T19:30:17.665Z,98495.91
2022-12-29T19:32:45.954Z,98505.88
2022-12-29T19:35:14.175Z,98497.19
2022-12-29T19:37:42.688Z,98486.78
2022-12-29T19:40:14.411Z,98485.75
2022-12-29T19:42:42.729Z,98480.03
2022-12-29T19:45:11.183Z,98474.31
2022-12-29T19:47:39.295Z,98460.56
2022-12-29T19:50:09.234Z,98447.69
2022-12-29T19:52:38.049Z,98444.81
2022-12-29T19:55:06.531Z,98445.19
2022-12-29T19:57:36.723Z,98432.06
2022-12-29T20:00:06.009Z,98421.00
2022-12-29T20:02:40.242Z,98414.00
2022-12-29T20:05:09.463Z,98407.25
2022-12-29T20:07:38.036Z,98403.38
2022-12-29T20:10:06.936Z,98405.88
2022-12-29T20:12:38.457Z,98397.56
2022-12-29T20:15:07.765Z,98391.44
2022-12-29T20:18:12.064Z,98393.88
2022-12-29T20:20:25.512Z,98378.53
2022-12-29T20:22:53.612Z,98368.19
2022-12-29T20:28:11.907Z,98347.63
2022-12-29T20:30:40.293Z,98337.72
2022-12-29T20:33:08.995Z,98324.97
2022-12-29T20:35:52.219Z,98310.22
2022-12-29T20:38:22.916Z,98304.47
2022-12-29T20:40:51.119Z,98292.75
2022-12-29T20:43:20.852Z,98289.34
2022-12-29T20:45:50.121Z,98286.50
2022-12-29T20:48:18.203Z,98272.91
2022-12-29T20:50:46.507Z,98272.16
2022-12-29T20:53:14.636Z,98258.56
2022-12-29T20:55:42.849Z,98248.75
2022-12-29T20:58:23.661Z,98241.81
2022-12-29T21:00:54.000Z,98226.94
2022-12-29T21:03:22.491Z,98216.50
2022-12-29T21:05:50.629Z,98210.84
2022-12-29T21:08:19.010Z,98211.47
2022-12-29T21:10:48.455Z,98198.13
2022-12-29T21:13:17.493Z,98188.88
2022-12-29T21:15:46.637Z,98178.41
2022-12-29T21:18:16.688Z,98167.53
2022-12-29T21:20:45.066Z,98130.09
2022-12-29T21:23:13.540Z,98137.78
2022-12-29T21:25:44.631Z,98141.34
2022-12-29T21:28:13.731Z,98123.44
2022-12-29T21:30:42.498Z,98112.94
2022-12-29T21:33:10.862Z,98091.94
2022-12-29T21:35:40.716Z,98070.50
2022-12-29T21:38:09.527Z,98082.09
2022-12-29T21:40:39.058Z,98072.66
2022-12-29T21:43:07.235Z,98066.50
2022-12-29T21:45:34.411Z,98062.41
2022-12-29T21:48:20.881Z,98066.16
2022-12-29T21:51:08.855Z,98033.94
2022-12-29T21:53:39.494Z,98047.81
2022-12-29T21:56:08.526Z,98039.75
2022-12-29T21:58:54.595Z,98022.00
2022-12-29T22:01:40.729Z,98021.19
2022-12-29T22:04:26.900Z,98006.28
2022-12-29T22:07:14.058Z,98006.31
2022-12-29T22:09:59.797Z,97989.34
2022-12-29T22:12:45.380Z,97981.09
2022-12-29T22:15:13.438Z,97984.41
2022-12-29T22:17:48.236Z,97959.16
2022-12-29T22:20:17.500Z,97969.91
2022-12-29T22:22:47.166Z,97953.34
2022-12-29T22:25:15.478Z,97940.72
2022-12-29T22:27:44.111Z,97945.06
2022-12-29T22:30:12.925Z,97939.88
2022-12-29T22:32:41.578Z,97931.81
2022-12-29T22:35:10.694Z,97938.41
2022-12-29T22:37:39.761Z,97928.28
2022-12-29T22:40:11.127Z,97923.50
2022-12-29T22:42:40.195Z,97919.38
2022-12-29T22:45:08.920Z,97915.66
2022-12-29T22:47:37.520Z,97927.59
2022-12-29T22:50:06.129Z,97912.53
2022-12-29T22:52:34.286Z,97909.41
2022-12-29T22:55:06.722Z,97906.28
2022-12-29T22:57:37.363Z,97910.63
2022-12-29T23:00:06.994Z,97912.28
2022-12-29T23:02:35.951Z,97895.09
2022-12-29T23:05:05.296Z,97897.19
2022-12-29T23:07:34.303Z,97889.72
2022-12-29T23:10:02.453Z,97887.03
2022-12-29T23:12:31.331Z,97891.59
2022-12-29T23:15:01.093Z,97893.63
2022-12-29T23:17:29.239Z,97886.59
2022-12-29T23:19:57.596Z,97880.81
2022-12-29T23:22:25.745Z,97875.44
2022-12-29T23:24:54.039Z,97874.38
2022-12-29T23:27:22.550Z,97876.25
2022-12-29T23:29:50.752Z,97866.94
2022-12-29T23:32:20.244Z,97863.16
2022-12-29T23:34:48.617Z,97863.38
2022-12-29T23:37:16.903Z,97855.88
2022-12-29T23:39:45.148Z,97845.31
2022-12-29T23:42:13.918Z,97826.03
2022-12-29T23:44:41.987Z,97824.78
2022-12-29T23:47:10.256Z,97835.09
2022-12-29T23:49:39.870Z,97820.63
2022-12-29T23:52:08.203Z,97804.03
2022-12-29T23:54:36.433Z,97801.13
2022-12-29T23:57:04.542Z,97785.16
2022-12-29T23:59:32.693Z,97793.81
